Crystal Beach, Texas
Current Conditions -  °F | °C
As of 1:52 PM on Tuesday 21 Oct 2014 (Local Time) from KGLS Reporting Station
Clear Clear  
Wind Chill: 79°   Ceiling: Unl
Heat Index: 81°   Visibility: 10mi
Dew Point: 64°   Wind: 14mph
Humidity: 60%   Direction: 60°ENE
Pressure: 30.02"   Gusts: 21mph
Location:  29.4387°N, 94.6622°W
Report Text: KGLS 211852Z 06012G18KT 10SM CLR 26/18 A3002 RMK AO2 SLP164 T02610178
Loading
Personal Weather Stations






























Interactive Weather Map
Tropical Storm Tracking
New forecast layout! Learn more

10-Day Weather Forecast

Advertisements
Track Severe Weather on mobile